Terminal Aerodrome Forecast
Issued by NWS Portland, OR

Home | Current Version | Previous Version | Text Only | Print | Product List | Glossary On
Versions: 1 2 3 4 5 6 7 8 9 10 11 12 13 14 15 16 17 18 19 20 21 22 23 24 25 26 27 28 29 30 31 32
000
FTUS46 KPQR 241725
TAFSLE
TAF
KSLE 241725Z 2418/2518 32005KT P6SM OVC015
     FM242200 36005KT P6SM SCT020 OVC045
     FM250400 31004KT P6SM OVC025
     FM250700 VRB03KT P6SM OVC015=

USA.gov is the U.S. government's official web portal to all federal, state and local government web resources and services.